Time;durP1;ratioP1;P1;durP2;ratioP2;P2;SDS_P1;SDS_P2;PMS_P1;PMS_P2;Temp;Humidity;BMP_temperature;BMP_pressure;BME280_temperature;BME280_humidity;BME280_pressure;Samples;Min_cycle;Max_cycle;Signal;HPM_P1;HPM_P2
2023/05/15 00:01:16;;;;;;;6.97;5.55;;;;;;;15.98;81.46;101058.31;4972089;28;20406;-83
2023/05/15 00:03:42;;;;;;;12.60;6.35;;;;;;;15.98;82.15;101050.19;4972178;28;20026;-85
2023/05/15 00:06:07;;;;;;;10.75;6.25;;;;;;;16.05;81.89;101066.72;4972000;28;20165;-85
2023/05/15 00:08:33;;;;;;;9.73;6.15;;;;;;;15.99;82.30;101072.75;4972531;28;20509;-84
2023/05/15 00:10:58;;;;;;;14.70;7.18;;;;;;;15.80;82.94;101051.97;4972573;28;20038;-84
2023/05/15 00:13:23;;;;;;;8.73;5.80;;;;;;;15.91;83.49;101054.47;4972592;28;20526;-84
2023/05/15 00:15:49;;;;;;;14.00;7.50;;;;;;;15.98;83.61;101058.31;4970953;28;20577;-84
2023/05/15 00:18:15;;;;;;;13.20;5.90;;;;;;;15.97;83.77;101059.31;4972164;28;20066;-84
2023/05/15 00:20:40;;;;;;;9.85;6.93;;;;;;;15.90;83.90;101058.19;4972024;28;20042;-84
2023/05/15 00:23:05;;;;;;;10.48;6.63;;;;;;;15.92;84.10;101049.91;4972155;28;20023;-84
2023/05/15 00:25:31;;;;;;;13.93;7.05;;;;;;;15.92;84.17;101045.34;4972477;28;20109;-84
2023/05/15 00:27:56;;;;;;;11.77;6.75;;;;;;;16.00;84.60;101053.59;4972604;28;20062;-83
2023/05/15 00:30:22;;;;;;;11.65;6.95;;;;;;;16.02;84.41;101062.44;4972905;28;20085;-85
2023/05/15 00:32:47;;;;;;;8.73;6.30;;;;;;;16.05;84.36;101070.28;4973105;28;20097;-84
2023/05/15 00:35:13;;;;;;;10.98;6.80;;;;;;;16.07;84.71;101065.56;4973320;28;20031;-84
2023/05/15 00:37:39;;;;;;;12.85;8.23;;;;;;;16.01;84.46;101046.31;4989665;28;20110;-85
2023/05/15 00:40:05;;;;;;;21.00;7.63;;;;;;;16.12;84.18;101046.97;4989610;28;20034;-84
2023/05/15 00:42:31;;;;;;;13.38;8.05;;;;;;;16.12;84.41;101044.25;4972136;28;20110;-85
2023/05/15 00:44:59;;;;;;;12.63;7.95;;;;;;;16.18;84.16;101062.63;4972344;28;20538;-83
2023/05/15 00:47:26;;;;;;;15.32;7.93;;;;;;;16.11;84.29;101055.25;4971890;28;20483;-83
2023/05/15 00:49:52;;;;;;;10.20;6.95;;;;;;;16.07;84.47;101051.13;4971886;28;20038;-84
2023/05/15 00:52:18;;;;;;;15.40;7.32;;;;;;;16.08;84.69;101056.41;4971736;28;20034;-84
2023/05/15 00:54:43;;;;;;;13.50;7.90;;;;;;;16.12;84.65;101046.97;4971618;28;20023;-84
2023/05/15 00:57:10;;;;;;;10.77;7.22;;;;;;;16.15;84.65;101062.94;4970619;28;20038;-84
2023/05/15 00:59:38;;;;;;;14.82;8.02;;;;;;;16.11;84.68;101060.69;4979664;28;20091;-83
2023/05/15 01:02:04;;;;;;;14.93;7.40;;;;;;;16.17;84.68;101060.94;4979486;28;20038;-84
2023/05/15 01:04:29;;;;;;;11.60;7.80;;;;;;;16.13;84.53;101054.09;4979172;28;20069;-83
2023/05/15 01:06:55;;;;;;;14.10;7.93;;;;;;;16.20;84.32;101049.78;4980414;28;20026;-83
2023/05/15 01:09:26;;;;;;;20.83;8.68;;;;;;;16.21;84.09;101056.91;4981021;28;20038;-84
2023/05/15 01:11:54;;;;;;;10.77;7.07;;;;;;;16.25;84.32;101050.19;4981526;28;20031;-83
2023/05/15 01:14:19;;;;;;;13.68;7.93;;;;;;;16.28;84.04;101047.16;4984797;28;20026;-82
2023/05/15 01:16:45;;;;;;;15.00;7.38;;;;;;;16.30;83.56;101052.44;4980563;28;20029;-83
2023/05/15 01:19:11;;;;;;;18.45;8.30;;;;;;;16.15;83.65;101018.66;4975469;28;20486;-84
2023/05/15 01:21:36;;;;;;;11.95;6.88;;;;;;;16.23;83.71;101027.78;4976153;28;20478;-84
2023/05/15 01:24:13;;;;;;;10.77;6.53;;;;;;;16.23;83.79;101027.78;4975855;28;20037;-84
2023/05/15 01:27:16;;;;;;;10.82;7.00;;;;;;;16.22;83.64;101034.19;4984602;28;20058;-84
2023/05/15 01:29:56;;;;;;;8.95;6.60;;;;;;;16.18;83.54;101034.63;4983560;28;20023;-82
2023/05/15 01:32:37;;;;;;;10.65;6.72;;;;;;;16.19;83.55;101039.06;4981741;28;20026;-81
2023/05/15 01:35:10;;;;;;;14.63;7.50;;;;;;;16.17;83.45;101025.66;4991506;28;20022;-85
2023/05/15 01:37:42;;;;;;;12.63;7.18;;;;;;;16.12;83.62;101011.69;4984885;28;20101;-83
2023/05/15 01:40:10;;;;;;;15.10;8.13;;;;;;;16.05;83.55;101012.44;4972245;28;20082;-83
2023/05/15 01:42:41;;;;;;;11.02;6.97;;;;;;;16.02;83.71;101013.59;4972810;28;20046;-83
2023/05/15 01:45:10;;;;;;;10.90;6.63;;;;;;;16.01;83.65;100992.91;4974548;28;20573;-85
2023/05/15 01:47:55;;;;;;;9.50;6.68;;;;;;;15.94;83.55;100983.66;4972463;28;20102;-83
2023/05/15 01:50:21;;;;;;;21.60;6.78;;;;;;;15.96;83.39;100976.19;4971462;28;20418;-83
2023/05/15 01:52:50;;;;;;;9.98;7.03;;;;;;;15.86;83.77;100959.13;4973514;28;20042;-85
2023/05/15 01:55:16;;;;;;;12.07;6.75;;;;;;;15.85;83.84;100960.13;4972578;28;20106;-84
2023/05/15 01:57:45;;;;;;;12.15;7.38;;;;;;;15.83;83.84;100964.88;4973059;28;20046;-82
2023/05/15 02:00:12;;;;;;;10.82;7.70;;;;;;;15.74;83.98;100965.78;4971702;28;20489;-83
2023/05/15 02:02:38;;;;;;;10.50;7.88;;;;;;;15.72;84.32;100967.75;4973444;28;20033;-83
2023/05/15 02:05:05;;;;;;;13.90;8.48;;;;;;;15.76;84.92;100974.59;4972665;28;20062;-85
2023/05/15 02:07:32;;;;;;;14.85;7.15;;;;;;;15.74;84.74;100957.63;4972792;28;20442;-83
2023/05/15 02:09:58;;;;;;;17.75;8.48;;;;;;;15.77;84.55;100965.47;4972901;28;20031;-84
2023/05/15 02:12:26;;;;;;;12.00;7.53;;;;;;;15.79;84.49;100964.31;4974983;28;20027;-84
2023/05/15 02:14:52;;;;;;;10.95;6.85;;;;;;;15.80;84.82;100962.44;4977516;28;20058;-84
2023/05/15 02:17:19;;;;;;;9.50;7.32;;;;;;;15.86;84.18;100947.44;4973892;28;20031;-85
2023/05/15 02:19:44;;;;;;;15.20;7.35;;;;;;;15.79;84.09;100950.75;4970973;28;20019;-83
2023/05/15 02:22:10;;;;;;;9.25;6.82;;;;;;;15.76;84.31;100952.91;4971249;28;20042;-84
2023/05/15 02:24:35;;;;;;;16.27;7.30;;;;;;;15.71;84.13;100939.81;4972781;28;20498;-84
2023/05/15 02:27:12;;;;;;;9.10;5.75;;;;;;;15.76;83.67;100950.19;4971344;28;20035;-83
2023/05/15 02:29:49;;;;;;;9.00;5.45;;;;;;;15.74;84.08;100961.19;4982183;28;20055;-84
2023/05/15 02:32:56;;;;;;;10.48;5.47;;;;;;;15.81;83.79;100974.16;4988368;28;20039;-84
2023/05/15 02:36:03;;;;;;;12.18;6.28;;;;;;;15.80;83.71;100962.44;4914584;29;20040;-83
2023/05/15 02:38:35;;;;;;;10.68;5.22;;;;;;;15.71;83.91;100949.78;4911675;29;20160;-83
2023/05/15 02:41:03;;;;;;;15.32;5.75;;;;;;;15.77;83.99;100960.03;4911390;29;20040;-83
2023/05/15 02:43:29;;;;;;;10.75;5.32;;;;;;;15.69;84.33;100940.94;4911094;29;20636;-83
2023/05/15 02:45:55;;;;;;;14.80;5.53;;;;;;;15.74;84.36;100957.63;4910955;29;20046;-84
2023/05/15 02:48:21;;;;;;;10.27;5.90;;;;;;;15.80;84.27;100938.03;4895199;29;20044;-83
2023/05/15 02:50:47;;;;;;;9.80;5.65;;;;;;;15.82;84.01;100938.75;4910913;29;20468;-83
2023/05/15 02:53:14;;;;;;;16.58;5.60;;;;;;;15.89;84.11;100941.69;4910698;29;20072;-84
2023/05/15 02:55:40;;;;;;;7.20;5.35;;;;;;;15.84;84.02;100942.13;4910943;29;20048;-86
2023/05/15 02:58:05;;;;;;;12.27;4.85;;;;;;;15.84;84.29;100941.31;4910996;29;20040;-86
2023/05/15 03:00:31;;;;;;;12.27;5.90;;;;;;;15.82;84.31;100927.03;4911278;29;20040;-84
2023/05/15 03:02:56;;;;;;;11.43;5.07;;;;;;;15.88;84.19;100940.84;4910708;29;20040;-85
2023/05/15 03:05:22;;;;;;;15.13;6.00;;;;;;;15.95;83.99;100949.22;4895006;29;20488;-85
2023/05/15 03:07:47;;;;;;;9.80;5.32;;;;;;;15.94;83.70;100951.09;4910661;29;20413;-85
2023/05/15 03:10:13;;;;;;;12.18;5.32;;;;;;;15.99;83.75;100950.66;4894471;29;20032;-84
2023/05/15 03:12:38;;;;;;;9.20;5.18;;;;;;;16.04;83.45;100940.19;4959764;28;20042;-83
2023/05/15 03:15:05;;;;;;;12.50;4.88;;;;;;;15.92;83.27;100933.25;4990792;28;20050;-85
2023/05/15 03:17:31;;;;;;;12.68;5.05;;;;;;;15.93;83.66;100934.97;4990692;28;20593;-85
2023/05/15 03:19:56;;;;;;;10.00;4.70;;;;;;;15.89;83.65;100942.56;4991923;28;20179;-84
2023/05/15 03:22:22;;;;;;;10.70;5.25;;;;;;;15.86;84.05;100923.88;4997540;28;20117;-84
2023/05/15 03:24:48;;;;;;;9.20;5.47;;;;;;;15.84;84.58;100925.88;4995381;28;20048;-83
2023/05/15 03:27:13;;;;;;;11.63;6.03;;;;;;;15.76;84.90;100914.94;5008180;28;20548;-84
2023/05/15 03:29:38;;;;;;;8.98;5.10;;;;;;;15.75;85.31;100924.91;5009837;28;20133;-83
2023/05/15 03:32:04;;;;;;;16.15;6.30;;;;;;;15.68;85.42;100917.56;5000724;28;20222;-85
2023/05/15 03:34:31;;;;;;;10.02;5.22;;;;;;;15.80;85.20;100929.91;5008546;28;20141;-84
2023/05/15 03:36:56;;;;;;;10.20;4.93;;;;;;;15.83;84.82;100928.75;4993597;28;20226;-84
2023/05/15 03:39:22;;;;;;;18.30;5.38;;;;;;;15.83;84.68;100935.03;4976584;28;20623;-86
2023/05/15 03:41:47;;;;;;;15.15;4.75;;;;;;;15.74;85.05;100911.53;4992962;28;20065;-83
2023/05/15 03:44:12;;;;;;;7.38;4.88;;;;;;;15.85;84.87;100929.44;4976706;28;20038;-85
2023/05/15 03:46:38;;;;;;;14.57;4.70;;;;;;;15.85;85.44;100935.72;4994007;28;20068;-90
2023/05/15 03:49:03;;;;;;;17.10;5.25;;;;;;;15.72;85.73;100929.78;4994209;28;20468;-91
2023/05/15 03:51:29;;;;;;;8.80;4.93;;;;;;;15.76;86.19;100923.94;4979138;28;20042;-84
2023/05/15 03:53:54;;;;;;;12.65;5.78;;;;;;;15.89;85.91;100937.13;4975046;28;20073;-86
2023/05/15 03:56:20;;;;;;;7.43;5.05;;;;;;;15.79;86.38;100920.06;4990202;28;20053;-84
2023/05/15 03:58:45;;;;;;;9.68;5.43;;;;;;;15.78;85.90;100926.47;4979028;28;20046;-86
2023/05/15 04:01:11;;;;;;;18.88;5.47;;;;;;;15.99;85.69;100947.94;4975270;28;20023;-88
2023/05/15 04:03:36;;;;;;;35.63;8.27;;;;;;;15.95;85.59;100928.41;4976149;28;20078;-87
2023/05/15 04:06:02;;;;;;;20.35;5.40;;;;;;;15.97;85.58;100922.78;4975940;28;20042;-82
2023/05/15 04:08:27;;;;;;;14.95;5.90;;;;;;;15.88;85.22;100932.72;4974507;28;20055;-87
2023/05/15 04:10:53;;;;;;;23.67;7.28;;;;;;;16.07;85.23;100956.16;4974208;28;20050;-85
2023/05/15 04:13:18;;;;;;;23.33;6.03;;;;;;;15.99;85.31;100954.19;4974237;28;20027;-86
2023/05/15 04:15:44;;;;;;;39.20;7.30;;;;;;;16.11;85.51;100957.56;4975550;28;20031;-86
2023/05/15 04:18:09;;;;;;;17.52;5.47;;;;;;;16.19;84.64;100963.94;4978254;28;20025;-83
2023/05/15 04:20:35;;;;;;;43.80;7.75;;;;;;;16.25;84.40;100952.47;4975715;28;20045;-83
2023/05/15 04:23:02;;;;;;;18.17;5.15;;;;;;;16.23;84.23;100946.34;4985938;28;20839;-86
2023/05/15 04:25:28;;;;;;;15.38;5.90;;;;;;;16.22;83.82;100936.50;4993282;28;20039;-81
2023/05/15 04:27:54;;;;;;;13.75;5.38;;;;;;;16.29;83.52;100951.16;5025375;22;20777;-92
2023/05/15 04:30:20;;;;;;;26.88;8.65;;;;;;;16.38;82.89;100957.53;5018945;28;20095;-90
2023/05/15 04:32:46;;;;;;;27.15;7.03;;;;;;;16.28;83.09;100957.59;5018747;28;20469;-90
2023/05/15 04:35:12;;;;;;;28.83;5.65;;;;;;;16.27;83.55;100958.59;5014333;28;20030;-85
2023/05/15 04:37:39;;;;;;;84.07;9.40;;;;;;;16.40;83.23;100970.94;5014361;28;20025;-86
2023/05/15 04:40:06;;;;;;;15.35;5.75;;;;;;;16.46;82.53;100983.88;5013513;28;20208;-85
2023/05/15 04:42:32;;;;;;;34.88;7.15;;;;;;;16.45;82.65;100984.91;5016282;28;20117;-86
2023/05/15 04:44:57;;;;;;;15.00;5.43;;;;;;;16.40;82.78;100970.94;5014857;28;20467;-87
2023/05/15 04:47:23;;;;;;;22.35;6.50;;;;;;;16.51;82.50;100976.16;5013046;28;20460;-90
2023/05/15 04:49:49;;;;;;;47.70;8.48;;;;;;;16.51;82.68;100995.16;5013126;28;20030;-89
2023/05/15 04:52:15;;;;;;;26.63;7.28;;;;;;;16.66;81.61;100997.22;5012239;28;20026;-88
2023/05/15 04:54:40;;;;;;;33.38;7.30;;;;;;;16.61;81.06;100987.81;5010422;28;20033;-84
2023/05/15 04:57:06;;;;;;;38.10;7.35;;;;;;;16.65;80.74;100987.34;5014661;28;20412;-86
2023/05/15 04:59:32;;;;;;;28.58;6.30;;;;;;;16.70;80.32;100987.75;5012214;28;20030;-81
2023/05/15 05:01:57;;;;;;;26.67;6.70;;;;;;;16.69;80.02;100990.63;5012500;28;20551;-80
2023/05/15 05:04:23;;;;;;;26.67;6.10;;;;;;;16.58;80.20;100983.53;5010916;28;20032;-81
2023/05/15 05:06:48;;;;;;;37.80;6.68;;;;;;;16.58;80.30;100986.25;5011479;28;20049;-85
2023/05/15 05:09:14;;;;;;;45.00;8.38;;;;;;;16.59;80.45;100978.97;5014952;28;20085;-88
2023/05/15 05:11:42;;;;;;;19.25;6.35;;;;;;;16.62;80.87;100979.53;5017433;28;20147;-91
2023/05/15 05:14:14;;;;;;;24.63;6.13;;;;;;;16.67;80.64;100987.19;5020662;28;20026;-87
2023/05/15 05:16:40;;;;;;;30.77;6.60;;;;;;;16.73;80.12;100978.41;5021931;28;20091;-89
2023/05/15 05:19:06;;;;;;;29.75;7.00;;;;;;;16.85;79.86;100975.31;5029529;28;20014;-85
2023/05/15 05:21:32;;;;;;;22.55;5.47;;;;;;;16.81;78.86;100964.94;5029365;28;20034;-84
2023/05/15 05:23:57;;;;;;;24.10;4.97;;;;;;;16.83;78.24;100943.88;5014661;28;20100;-84
2023/05/15 05:26:24;;;;;;;22.13;6.07;;;;;;;16.85;78.41;100940.00;5012563;28;20038;-81
2023/05/15 05:28:50;;;;;;;23.55;6.05;;;;;;;16.94;77.67;100948.22;5028144;28;20054;-85
2023/05/15 05:31:15;;;;;;;22.73;5.43;;;;;;;16.91;76.92;100968.38;5031953;28;20037;-89
2023/05/15 05:33:41;;;;;;;40.47;5.35;;;;;;;16.99;76.73;100973.91;5035294;28;20026;-89
2023/05/15 05:36:07;;;;;;;24.63;5.40;;;;;;;17.10;76.53;100968.22;5034000;28;20053;-90
2023/05/15 05:38:33;;;;;;;17.42;5.63;;;;;;;17.14;74.77;100934.28;5035411;28;20030;-88
2023/05/15 05:41:00;;;;;;;28.10;5.50;;;;;;;17.31;74.13;100948.81;5034326;28;20037;-89
2023/05/15 05:43:25;;;;;;;15.85;5.05;;;;;;;17.13;72.83;100929.84;5063214;28;20040;-92
2023/05/15 05:45:51;;;;;;;38.08;6.10;;;;;;;17.26;72.50;100946.59;5035151;28;20122;-90
2023/05/15 05:48:17;;;;;;;28.30;6.15;;;;;;;17.50;71.83;100972.22;5035567;28;20014;-86
2023/05/15 05:50:42;;;;;;;19.33;5.80;;;;;;;17.43;71.64;100948.38;5033452;28;20029;-85
2023/05/15 05:53:08;;;;;;;14.48;4.30;;;;;;;17.43;71.40;100959.25;5034081;28;20022;-89
2023/05/15 05:55:33;;;;;;;33.85;7.10;;;;;;;17.47;71.46;100953.50;5027240;28;20056;-84
2023/05/15 05:58:00;;;;;;;21.73;5.00;;;;;;;17.43;70.94;100945.66;5022704;28;20024;-85
2023/05/15 06:00:26;;;;;;;17.88;5.78;;;;;;;17.52;70.45;100962.03;5016237;28;20030;-84
2023/05/15 06:02:54;;;;;;;19.88;5.07;;;;;;;17.42;69.80;100954.84;5014315;28;20416;-86
2023/05/15 06:05:20;;;;;;;18.60;5.07;;;;;;;17.42;69.08;100973.88;5013870;28;20184;-85
2023/05/15 06:07:46;;;;;;;12.85;4.47;;;;;;;17.35;68.95;100956.50;5013996;28;20093;-83
2023/05/15 06:10:12;;;;;;;16.33;5.20;;;;;;;17.43;69.29;100989.16;5013190;28;20086;-84
2023/05/15 06:12:38;;;;;;;33.83;6.57;;;;;;;17.47;69.87;100980.69;5013496;28;20037;-82
2023/05/15 06:15:04;;;;;;;22.17;4.93;;;;;;;17.43;70.34;100963.84;5017547;28;20049;-82
2023/05/15 06:17:29;;;;;;;32.40;8.55;;;;;;;17.57;70.95;100982.34;5023032;28;20022;-92
2023/05/15 06:19:55;;;;;;;9.13;3.80;;;;;;;17.24;71.14;100964.94;5013166;28;20556;-85
2023/05/15 06:22:20;;;;;;;13.35;6.32;;;;;;;17.41;71.22;100968.59;5010541;28;20354;-92
2023/05/15 06:24:46;;;;;;;14.43;4.90;;;;;;;17.42;68.74;100984.78;5013370;28;20036;-88
2023/05/15 06:27:11;;;;;;;31.95;7.32;;;;;;;17.44;68.43;100957.41;5011156;28;20112;-87
2023/05/15 06:29:37;;;;;;;22.67;5.68;;;;;;;17.62;68.31;100970.94;5010657;28;20034;-87
2023/05/15 06:32:02;;;;;;;12.82;4.32;;;;;;;17.44;67.74;100962.84;5010387;28;20073;-87
2023/05/15 06:34:27;;;;;;;37.33;6.03;;;;;;;17.59;66.88;100963.97;5009680;28;20026;-89
2023/05/15 06:36:53;;;;;;;16.08;3.97;;;;;;;17.70;68.42;100973.75;5011760;28;20037;-89
2023/05/15 06:39:18;;;;;;;21.05;5.47;;;;;;;17.74;67.95;100962.34;4993531;28;20116;-86
2023/05/15 06:41:44;;;;;;;12.55;4.10;;;;;;;17.83;66.98;100944.19;5010599;28;20095;-84
2023/05/15 06:44:09;;;;;;;25.15;5.57;;;;;;;17.90;65.87;100935.22;5008203;28;20045;-86
2023/05/15 06:46:35;;;;;;;22.83;5.07;;;;;;;18.01;64.76;100946.84;5010859;28;20045;-82
2023/05/15 06:49:00;;;;;;;59.38;10.77;;;;;;;18.16;64.65;100954.19;5010300;28;20030;-84
2023/05/15 06:51:26;;;;;;;14.48;4.50;;;;;;;18.03;62.97;100921.16;5012594;28;20160;-84
2023/05/15 06:53:51;;;;;;;25.60;4.07;;;;;;;18.40;62.12;100958.84;5004928;28;20038;-86
2023/05/15 06:56:17;;;;;;;7.15;4.00;;;;;;;18.43;61.67;100943.03;4995384;28;20058;-94
2023/05/15 06:58:42;;;;;;;5.75;3.67;;;;;;;18.66;60.82;100954.13;4994211;28;20054;-80
2023/05/15 07:01:08;;;;;;;12.98;3.90;;;;;;;18.56;60.01;100922.66;4991587;28;20068;-81
2023/05/15 07:03:34;;;;;;;15.55;4.63;;;;;;;18.69;61.18;100931.13;4995979;28;20070;-83
2023/05/15 07:05:59;;;;;;;22.65;3.70;;;;;;;18.62;61.01;100924.69;4996121;28;20038;-81
2023/05/15 07:08:25;;;;;;;26.20;4.72;;;;;;;18.72;59.76;100914.44;4997008;28;20052;-82
2023/05/15 07:10:51;;;;;;;7.38;2.70;;;;;;;18.75;57.29;100928.59;5011243;28;20025;-85
2023/05/15 07:13:17;;;;;;;17.08;3.70;;;;;;;18.67;58.03;100916.84;5010695;28;20081;-83
2023/05/15 07:15:43;;;;;;;14.98;4.43;;;;;;;18.58;58.79;100896.94;4991652;28;20077;-85
2023/05/15 07:18:08;;;;;;;20.63;5.22;;;;;;;18.80;59.00;100922.66;4991415;28;20209;-83
2023/05/15 07:20:34;;;;;;;21.05;4.78;;;;;;;18.77;59.52;100921.13;4995583;28;20023;-84
2023/05/15 07:23:00;;;;;;;7.10;3.95;;;;;;;18.54;59.94;100911.03;4992813;28;20100;-82
2023/05/15 07:25:25;;;;;;;8.05;4.00;;;;;;;18.56;61.10;100912.56;4992450;28;20120;-82
2023/05/15 07:27:50;;;;;;;76.07;11.00;;;;;;;18.68;61.89;100927.59;4994278;28;20065;-85
2023/05/15 07:30:16;;;;;;;14.80;3.45;;;;;;;18.58;62.20;100902.38;5001999;28;20421;-89
2023/05/15 07:32:42;;;;;;;16.25;4.03;;;;;;;18.58;62.32;100912.41;5014093;28;20030;-83
2023/05/15 07:35:07;;;;;;;36.13;5.00;;;;;;;18.83;62.78;100944.13;4995191;28;20018;-83
2023/05/15 07:37:33;;;;;;;10.77;3.30;;;;;;;18.78;62.01;100946.47;4993381;28;20316;-82
2023/05/15 07:39:59;;;;;;;17.58;5.20;;;;;;;18.66;62.84;100953.28;4993027;28;20026;-82
2023/05/15 07:42:24;;;;;;;17.80;4.25;;;;;;;18.78;62.48;100935.56;4993145;28;20038;-84
2023/05/15 07:44:50;;;;;;;21.15;4.68;;;;;;;18.77;61.25;100933.88;4992773;28;20022;-84
2023/05/15 07:47:16;;;;;;;52.30;5.57;;;;;;;18.88;61.51;100928.09;4993143;28;20030;-84
2023/05/15 07:49:41;;;;;;;8.50;3.05;;;;;;;18.81;59.43;100907.97;4992755;28;20041;-83
2023/05/15 07:52:07;;;;;;;18.98;4.38;;;;;;;19.04;60.57;100925.34;4992018;28;20034;-83
2023/05/15 07:54:32;;;;;;;16.08;4.53;;;;;;;19.10;60.43;100924.66;5006681;28;20362;-83
2023/05/15 07:56:57;;;;;;;10.65;3.90;;;;;;;18.97;59.49;100921.59;5013442;28;20436;-82
2023/05/15 07:59:23;;;;;;;18.52;4.25;;;;;;;19.08;58.35;100921.25;5013149;28;20050;-84
2023/05/15 08:01:49;;;;;;;13.13;4.13;;;;;;;19.21;58.60;100905.22;5023052;28;20030;-83
2023/05/15 08:04:14;;;;;;;29.38;4.55;;;;;;;19.27;59.63;100909.97;5015167;28;20041;-84
2023/05/15 08:06:41;;;;;;;23.83;5.30;;;;;;;18.92;58.94;100896.75;5031447;28;20099;-84
2023/05/15 08:09:08;;;;;;;8.55;4.40;;;;;;;18.95;58.88;100924.53;5030602;28;20129;-84
2023/05/15 08:11:33;;;;;;;11.52;3.60;;;;;;;19.18;57.27;100929.25;5014603;28;20087;-85
2023/05/15 08:13:59;;;;;;;15.82;3.80;;;;;;;19.23;57.13;100927.72;5015858;28;20029;-83
2023/05/15 08:16:24;;;;;;;36.03;4.95;;;;;;;19.21;56.59;100923.44;5015456;28;20152;-83
2023/05/15 08:18:52;;;;;;;10.10;3.35;;;;;;;19.08;55.66;100929.41;5012970;28;20566;-84
2023/05/15 08:21:18;;;;;;;16.17;3.72;;;;;;;19.02;54.51;100928.25;5013495;28;20045;-84
2023/05/15 08:23:43;;;;;;;8.43;3.08;;;;;;;18.82;55.21;100926.03;5012535;28;20038;-84
2023/05/15 08:26:09;;;;;;;15.95;3.40;;;;;;;18.62;54.80;100930.13;5011757;28;20510;-83
2023/05/15 08:28:34;;;;;;;19.17;3.70;;;;;;;18.70;53.31;100922.81;5011484;28;20054;-83
2023/05/15 08:31:00;;;;;;;23.02;4.25;;;;;;;18.65;53.57;100913.44;5010520;28;20030;-83
2023/05/15 08:33:25;;;;;;;16.77;4.85;;;;;;;18.68;53.63;100904.94;5012091;28;20041;-84
2023/05/15 08:35:51;;;;;;;122.68;15.68;;;;;;;18.74;50.65;100932.38;5013208;28;20118;-81
2023/05/15 08:38:16;;;;;;;12.32;3.35;;;;;;;18.78;51.34;100920.06;5013545;28;20041;-85
2023/05/15 08:40:45;;;;;;;6.68;2.85;;;;;;;18.68;51.70;100902.22;5012347;28;20504;-83
2023/05/15 08:43:14;;;;;;;24.90;4.47;;;;;;;18.90;50.96;100917.84;5011822;28;20049;-83
2023/05/15 08:45:40;;;;;;;14.98;4.15;;;;;;;18.96;49.23;100918.03;5011664;28;20040;-83
2023/05/15 08:48:13;;;;;;;12.38;3.72;;;;;;;18.87;50.27;100891.78;5011664;28;20037;-86
2023/05/15 08:50:40;;;;;;;17.05;3.55;;;;;;;18.87;53.22;100885.50;5011990;28;20562;-83
2023/05/15 08:53:06;;;;;;;9.15;2.90;;;;;;;18.85;52.29;100907.47;5012220;28;20033;-87
2023/05/15 08:55:32;;;;;;;10.60;3.47;;;;;;;18.99;53.85;100903.19;5013864;28;20026;-86
2023/05/15 08:57:58;;;;;;;41.83;4.80;;;;;;;19.18;53.64;100900.09;5014151;28;20037;-85
2023/05/15 09:00:25;;;;;;;5.38;2.88;;;;;;;19.23;49.81;100889.53;5015220;28;20026;-83
2023/05/15 09:02:52;;;;;;;6.18;2.95;;;;;;;19.53;51.22;100902.44;5024825;28;20021;-83
2023/05/15 09:05:18;;;;;;;10.80;3.15;;;;;;;19.47;50.70;100889.50;5036251;28;20040;-84
2023/05/15 09:07:45;;;;;;;14.75;3.40;;;;;;;19.69;50.33;100887.88;5011641;28;20030;-85
2023/05/15 09:10:12;;;;;;;35.33;5.68;;;;;;;19.76;49.00;100893.44;5011301;28;20025;-83
2023/05/15 09:12:43;;;;;;;28.95;4.38;;;;;;;19.82;49.07;100868.19;5008963;28;20034;-84
2023/05/15 09:15:16;;;;;;;29.48;4.53;;;;;;;19.92;48.95;100891.50;5010867;28;20024;-83
2023/05/15 09:17:43;;;;;;;13.43;3.78;;;;;;;19.92;50.36;100898.84;5010744;28;20037;-84
2023/05/15 09:20:29;;;;;;;34.05;4.68;;;;;;;19.68;49.61;100901.69;5010766;28;20026;-83
2023/05/15 09:22:56;;;;;;;10.40;3.75;;;;;;;19.80;49.97;100917.50;5010188;28;20024;-83
2023/05/15 09:25:40;;;;;;;21.40;5.85;;;;;;;19.67;47.77;100910.88;5010167;28;20052;-84
2023/05/15 09:28:23;;;;;;;9.20;3.50;;;;;;;19.52;46.34;100908.91;5010207;28;20127;-83
2023/05/15 09:30:49;;;;;;;13.80;4.22;;;;;;;19.51;50.95;100900.88;5010336;28;20022;-82
2023/05/15 09:33:16;;;;;;;20.30;3.97;;;;;;;19.62;50.40;100905.13;5010120;28;20053;-83
2023/05/15 09:35:41;;;;;;;21.17;4.15;;;;;;;19.62;49.52;100891.47;5008754;28;20028;-83
2023/05/15 09:38:09;;;;;;;19.88;4.38;;;;;;;19.53;50.34;100877.88;5010940;28;20537;-84
2023/05/15 09:40:34;;;;;;;20.10;4.57;;;;;;;19.72;50.86;100890.25;5010523;28;20030;-83
2023/05/15 09:43:00;;;;;;;7.18;3.22;;;;;;;19.77;49.36;100878.78;5010841;28;20404;-84
2023/05/15 09:45:28;;;;;;;27.27;3.25;;;;;;;19.95;46.25;100884.84;5010077;28;20026;-84
2023/05/15 09:47:55;;;;;;;36.47;4.82;;;;;;;20.16;45.10;100886.91;5010193;28;20493;-83
2023/05/15 09:50:22;;;;;;;17.77;3.35;;;;;;;20.22;46.28;100870.66;5010423;28;20034;-85
2023/05/15 09:52:49;;;;;;;16.30;3.90;;;;;;;20.14;46.06;100846.16;5012143;28;20397;-84
2023/05/15 09:55:16;;;;;;;27.02;4.25;;;;;;;20.46;43.44;100870.53;5011498;28;20080;-82
2023/05/15 09:57:42;;;;;;;18.10;3.35;;;;;;;20.58;42.86;100868.19;5018780;28;20038;-82
2023/05/15 10:00:11;;;;;;;18.02;3.60;;;;;;;20.79;41.57;100875.72;5027972;28;20026;-88
2023/05/15 10:02:40;;;;;;;14.90;2.83;;;;;;;20.58;39.31;100863.59;5016674;28;20175;-84
2023/05/15 10:05:06;;;;;;;28.10;3.67;;;;;;;20.42;40.17;100841.88;5011318;28;20049;-82
2023/05/15 10:07:34;;;;;;;11.98;3.83;;;;;;;20.63;39.79;100850.22;5010653;28;20413;-89
2023/05/15 10:10:02;;;;;;;26.10;3.25;;;;;;;20.83;39.80;100860.63;5009563;28;20116;-89
2023/05/15 10:12:30;;;;;;;24.17;3.83;;;;;;;20.63;41.06;100852.13;5010696;28;20177;-87
2023/05/15 10:14:58;;;;;;;12.10;2.88;;;;;;;20.76;41.42;100841.41;5009618;28;20444;-86
2023/05/15 10:17:24;;;;;;;4.22;2.40;;;;;;;21.06;40.48;100855.97;5011082;28;20025;-93
2023/05/15 10:19:50;;;;;;;15.35;3.60;;;;;;;21.10;41.13;100863.63;5012157;28;20033;-92
2023/05/15 10:22:40;;;;;;;7.97;2.90;;;;;;;21.02;42.99;100863.69;5016582;28;20034;-92
2023/05/15 10:25:17;;;;;;;9.45;3.03;;;;;;;20.95;44.31;100843.59;4995860;28;20049;-89
2023/05/15 10:27:43;;;;;;;21.35;4.00;;;;;;;21.11;43.75;100853.53;4993440;28;20064;-89
2023/05/15 10:30:13;;;;;;;19.88;3.20;;;;;;;21.11;44.07;100859.88;4994393;28;21300;-89
2023/05/15 10:32:40;;;;;;;8.63;2.35;;;;;;;20.79;44.70;100856.59;4998075;28;20088;-90
2023/05/15 10:35:09;;;;;;;15.48;3.17;;;;;;;20.95;45.42;100856.41;5014564;28;20034;-86
2023/05/15 10:37:35;;;;;;;4.57;2.83;;;;;;;20.89;46.76;100854.41;5005835;28;20051;-88
2023/05/15 10:40:01;;;;;;;15.35;2.85;;;;;;;20.76;46.21;100855.06;5004787;28;20053;-88
2023/05/15 10:42:29;;;;;;;10.05;3.03;;;;;;;20.96;46.08;100856.22;4999276;28;20133;-89
2023/05/15 10:44:58;;;;;;;11.65;3.58;;;;;;;20.98;46.28;100854.16;4963538;28;20109;-91
2023/05/15 10:47:25;;;;;;;12.90;3.05;;;;;;;21.05;46.88;100859.72;4998000;28;20057;-92
2023/05/15 10:49:51;;;;;;;17.65;3.72;;;;;;;21.04;46.97;100849.81;5003415;28;20127;-89
2023/05/15 10:52:17;;;;;;;37.30;5.43;;;;;;;21.05;46.97;100865.19;5005379;28;20038;-84
2023/05/15 10:54:43;;;;;;;19.50;3.60;;;;;;;20.83;45.96;100846.97;5015171;28;20050;-85
2023/05/15 10:57:09;;;;;;;17.80;5.70;;;;;;;20.99;46.15;100838.59;5030282;28;20046;-84
2023/05/15 10:59:36;;;;;;;9.05;3.78;;;;;;;20.96;46.63;100860.84;5021263;28;20195;-92
2023/05/15 11:02:25;;;;;;;22.23;4.60;;;;;;;21.10;46.96;100846.38;5015237;28;20036;-87
2023/05/15 11:05:02;;;;;;;20.95;3.63;;;;;;;21.26;45.88;100850.81;5016843;28;20092;-89
2023/05/15 11:07:28;;;;;;;31.08;4.93;;;;;;;21.28;46.35;100841.41;5015592;28;20100;-89
2023/05/15 11:09:54;;;;;;;11.77;3.38;;;;;;;21.27;46.13;100853.38;5034660;28;20550;-94
2023/05/15 11:12:21;;;;;;;16.77;4.18;;;;;;;21.14;47.69;100853.16;5036139;28;20034;-87
2023/05/15 11:14:55;;;;;;;5.20;2.83;;;;;;;21.16;45.64;100853.81;5036173;28;20060;-92
2023/05/15 11:17:25;;;;;;;56.38;16.95;;;;;;;21.27;46.71;100847.03;5024546;28;20030;-86
2023/05/15 11:19:50;;;;;;;17.88;3.45;;;;;;;21.23;47.73;100849.31;5050040;28;20133;-91